sensor_id;sensor_type;location;lat;lon;timestamp;pressure;altitude;pressure_sealevel;temperature
53412;BMP280;39307;52.870;13.660;2023-09-19T00:00:44;99957.41;;;17.82
53412;BMP280;39307;52.870;13.660;2023-09-19T00:03:10;99953.94;;;17.81
53412;BMP280;39307;52.870;13.660;2023-09-19T00:05:37;99949.94;;;17.79
53412;BMP280;39307;52.870;13.660;2023-09-19T00:08:04;99947.28;;;17.79
53412;BMP280;39307;52.870;13.660;2023-09-19T00:10:31;99946.25;;;17.80
53412;BMP280;39307;52.870;13.660;2023-09-19T00:12:58;99943.06;;;17.78
53412;BMP280;39307;52.870;13.660;2023-09-19T00:15:25;99943.56;;;17.75
53412;BMP280;39307;52.870;13.660;2023-09-19T00:17:52;99946.44;;;17.73
53412;BMP280;39307;52.870;13.660;2023-09-19T00:20:18;99940.13;;;17.74
53412;BMP280;39307;52.870;13.660;2023-09-19T00:22:44;99950.94;;;17.73
53412;BMP280;39307;52.870;13.660;2023-09-19T00:25:11;99944.03;;;17.72
53412;BMP280;39307;52.870;13.660;2023-09-19T00:27:38;99948.78;;;17.70
53412;BMP280;39307;52.870;13.660;2023-09-19T00:30:06;99944.28;;;17.70
53412;BMP280;39307;52.870;13.660;2023-09-19T00:32:32;99947.97;;;17.69
53412;BMP280;39307;52.870;13.660;2023-09-19T00:34:58;99954.56;;;17.67
53412;BMP280;39307;52.870;13.660;2023-09-19T00:37:24;99942.38;;;17.66
53412;BMP280;39307;52.870;13.660;2023-09-19T00:39:50;99948.72;;;17.65
53412;BMP280;39307;52.870;13.660;2023-09-19T00:42:20;99943.44;;;17.65
53412;BMP280;39307;52.870;13.660;2023-09-19T00:44:47;99931.22;;;17.64
53412;BMP280;39307;52.870;13.660;2023-09-19T00:47:13;99943.13;;;17.62
53412;BMP280;39307;52.870;13.660;2023-09-19T00:49:40;99940.97;;;17.59
53412;BMP280;39307;52.870;13.660;2023-09-19T00:52:07;99941.22;;;17.57
53412;BMP280;39307;52.870;13.660;2023-09-19T00:54:34;99931.91;;;17.55
53412;BMP280;39307;52.870;13.660;2023-09-19T00:57:01;99939.31;;;17.53
53412;BMP280;39307;52.870;13.660;2023-09-19T00:59:27;99936.09;;;17.51
53412;BMP280;39307;52.870;13.660;2023-09-19T01:01:54;99932.66;;;17.50
53412;BMP280;39307;52.870;13.660;2023-09-19T01:04:22;99936.88;;;17.51
53412;BMP280;39307;52.870;13.660;2023-09-19T01:06:49;99939.53;;;17.51
53412;BMP280;39307;52.870;13.660;2023-09-19T01:09:15;99932.66;;;17.50
53412;BMP280;39307;52.870;13.660;2023-09-19T01:11:46;99948.22;;;17.47
53412;BMP280;39307;52.870;13.660;2023-09-19T01:14:22;99936.50;;;17.43
53412;BMP280;39307;52.870;13.660;2023-09-19T01:17:09;99943.91;;;17.41
53412;BMP280;39307;52.870;13.660;2023-09-19T01:22:42;99948.63;;;17.39
53412;BMP280;39307;52.870;13.660;2023-09-19T01:28:20;99944.56;;;17.32
53412;BMP280;39307;52.870;13.660;2023-09-19T01:30:47;99942.16;;;17.30
53412;BMP280;39307;52.870;13.660;2023-09-19T01:33:18;99942.41;;;17.29
53412;BMP280;39307;52.870;13.660;2023-09-19T01:35:44;99940.00;;;17.27
53412;BMP280;39307;52.870;13.660;2023-09-19T01:38:10;99942.91;;;17.26
53412;BMP280;39307;52.870;13.660;2023-09-19T01:40:42;99948.19;;;17.26
53412;BMP280;39307;52.870;13.660;2023-09-19T01:43:23;99952.69;;;17.25
53412;BMP280;39307;52.870;13.660;2023-09-19T01:51:11;99953.97;;;17.23
53412;BMP280;39307;52.870;13.660;2023-09-19T01:53:55;99957.63;;;17.22
53412;BMP280;39307;52.870;13.660;2023-09-19T01:59:25;99950.28;;;17.24
53412;BMP280;39307;52.870;13.660;2023-09-19T02:01:55;99951.31;;;17.23
53412;BMP280;39307;52.870;13.660;2023-09-19T02:04:21;99953.16;;;17.22
53412;BMP280;39307;52.870;13.660;2023-09-19T02:06:48;99955.56;;;17.24
53412;BMP280;39307;52.870;13.660;2023-09-19T02:09:14;99960.28;;;17.22
53412;BMP280;39307;52.870;13.660;2023-09-19T02:11:41;99953.41;;;17.21
53412;BMP280;39307;52.870;13.660;2023-09-19T02:14:07;99948.59;;;17.18
53412;BMP280;39307;52.870;13.660;2023-09-19T02:16:34;99951.50;;;17.16
53412;BMP280;39307;52.870;13.660;2023-09-19T02:19:00;99949.88;;;17.15
53412;BMP280;39307;52.870;13.660;2023-09-19T02:21:26;99953.31;;;17.16
53412;BMP280;39307;52.870;13.660;2023-09-19T02:23:53;99959.66;;;17.15
53412;BMP280;39307;52.870;13.660;2023-09-19T02:26:19;99959.91;;;17.13
53412;BMP280;39307;52.870;13.660;2023-09-19T02:28:45;99966.22;;;17.12
53412;BMP280;39307;52.870;13.660;2023-09-19T02:31:11;99956.69;;;17.11
53412;BMP280;39307;52.870;13.660;2023-09-19T02:33:37;99963.84;;;17.11
53412;BMP280;39307;52.870;13.660;2023-09-19T02:36:04;99967.72;;;17.08
53412;BMP280;39307;52.870;13.660;2023-09-19T02:38:30;99964.50;;;17.06
53412;BMP280;39307;52.870;13.660;2023-09-19T02:40:56;99969.00;;;17.06
53412;BMP280;39307;52.870;13.660;2023-09-19T02:43:23;99967.16;;;17.06
53412;BMP280;39307;52.870;13.660;2023-09-19T02:45:50;99964.78;;;17.05
53412;BMP280;39307;52.870;13.660;2023-09-19T02:48:19;99984.31;;;17.04
53412;BMP280;39307;52.870;13.660;2023-09-19T02:50:46;99986.41;;;17.02
53412;BMP280;39307;52.870;13.660;2023-09-19T02:53:16;99980.31;;;17.02
53412;BMP280;39307;52.870;13.660;2023-09-19T02:55:42;99985.03;;;17.00
53412;BMP280;39307;52.870;13.660;2023-09-19T02:58:08;99983.44;;;16.99
53412;BMP280;39307;52.870;13.660;2023-09-19T03:00:35;99993.44;;;16.97
53412;BMP280;39307;52.870;13.660;2023-09-19T03:03:01;100000.59;;;16.96
53412;BMP280;39307;52.870;13.660;2023-09-19T03:05:27;99994.50;;;16.96
53412;BMP280;39307;52.870;13.660;2023-09-19T03:07:53;99995.78;;;16.93
53412;BMP280;39307;52.870;13.660;2023-09-19T03:10:20;99996.25;;;16.90
53412;BMP280;39307;52.870;13.660;2023-09-19T03:12:50;99993.88;;;16.89
53412;BMP280;39307;52.870;13.660;2023-09-19T03:15:16;99997.53;;;16.88
53412;BMP280;39307;52.870;13.660;2023-09-19T03:17:47;100003.88;;;16.87
53412;BMP280;39307;52.870;13.660;2023-09-19T03:20:14;99998.00;;;16.85
53412;BMP280;39307;52.870;13.660;2023-09-19T03:22:40;100007.78;;;16.84
53412;BMP280;39307;52.870;13.660;2023-09-19T03:25:07;100004.56;;;16.82
53412;BMP280;39307;52.870;13.660;2023-09-19T03:27:34;99991.59;;;16.81
53412;BMP280;39307;52.870;13.660;2023-09-19T03:30:01;100007.16;;;16.77
53412;BMP280;39307;52.870;13.660;2023-09-19T03:32:27;100007.16;;;16.77
53412;BMP280;39307;52.870;13.660;2023-09-19T03:34:53;100007.38;;;16.76
53412;BMP280;39307;52.870;13.660;2023-09-19T03:37:19;100008.16;;;16.76
53412;BMP280;39307;52.870;13.660;2023-09-19T03:39:46;100015.53;;;16.75
53412;BMP280;39307;52.870;13.660;2023-09-19T03:42:12;100022.69;;;16.74
53412;BMP280;39307;52.870;13.660;2023-09-19T03:44:38;100017.06;;;16.71
53412;BMP280;39307;52.870;13.660;2023-09-19T03:47:04;100031.88;;;16.72
53412;BMP280;39307;52.870;13.660;2023-09-19T03:49:31;100029.47;;;16.70
53412;BMP280;39307;52.870;13.660;2023-09-19T03:51:57;100022.00;;;16.67
53412;BMP280;39307;52.870;13.660;2023-09-19T03:54:23;100038.69;;;16.68
53412;BMP280;39307;52.870;13.660;2023-09-19T03:56:49;100030.19;;;16.66
53412;BMP280;39307;52.870;13.660;2023-09-19T03:59:15;100032.50;;;16.62
53412;BMP280;39307;52.870;13.660;2023-09-19T04:01:42;100032.72;;;16.61
53412;BMP280;39307;52.870;13.660;2023-09-19T04:04:08;100042.19;;;16.57
53412;BMP280;39307;52.870;13.660;2023-09-19T04:06:35;100041.94;;;16.58
53412;BMP280;39307;52.870;13.660;2023-09-19T04:09:02;100045.88;;;16.56
53412;BMP280;39307;52.870;13.660;2023-09-19T04:11:29;100050.00;;;16.52
53412;BMP280;39307;52.870;13.660;2023-09-19T04:13:55;100051.84;;;16.51
53412;BMP280;39307;52.870;13.660;2023-09-19T04:16:21;100046.00;;;16.49
53412;BMP280;39307;52.870;13.660;2023-09-19T04:18:47;100043.00;;;16.46
53412;BMP280;39307;52.870;13.660;2023-09-19T04:21:14;100056.22;;;16.46
53412;BMP280;39307;52.870;13.660;2023-09-19T04:23:40;100052.78;;;16.46
53412;BMP280;39307;52.870;13.660;2023-09-19T04:26:06;100054.31;;;16.42
53412;BMP280;39307;52.870;13.660;2023-09-19T04:28:32;100051.34;;;16.38
53412;BMP280;39307;52.870;13.660;2023-09-19T04:30:59;100056.84;;;16.37
53412;BMP280;39307;52.870;13.660;2023-09-19T04:33:25;100057.88;;;16.36
53412;BMP280;39307;52.870;13.660;2023-09-19T04:35:51;100060.53;;;16.36
53412;BMP280;39307;52.870;13.660;2023-09-19T04:38:18;100061.25;;;16.31
53412;BMP280;39307;52.870;13.660;2023-09-19T04:40:45;100067.78;;;16.29
53412;BMP280;39307;52.870;13.660;2023-09-19T04:43:12;100062.50;;;16.29
53412;BMP280;39307;52.870;13.660;2023-09-19T04:45:39;100055.84;;;16.26
53412;BMP280;39307;52.870;13.660;2023-09-19T04:48:05;100069.28;;;16.25
53412;BMP280;39307;52.870;13.660;2023-09-19T04:50:32;100078.97;;;16.19
53412;BMP280;39307;52.870;13.660;2023-09-19T04:52:58;100074.47;;;16.20
53412;BMP280;39307;52.870;13.660;2023-09-19T04:55:24;100078.13;;;16.19
53412;BMP280;39307;52.870;13.660;2023-09-19T04:57:51;100079.63;;;16.15
53412;BMP280;39307;52.870;13.660;2023-09-19T05:00:19;100086.19;;;16.13
53412;BMP280;39307;52.870;13.660;2023-09-19T05:02:48;100082.97;;;16.11
53412;BMP280;39307;52.870;13.660;2023-09-19T05:05:15;100089.88;;;16.12
53412;BMP280;39307;52.870;13.660;2023-09-19T05:07:42;100085.00;;;16.09
53412;BMP280;39307;52.870;13.660;2023-09-19T05:10:09;100086.63;;;16.10
53412;BMP280;39307;52.870;13.660;2023-09-19T05:12:35;100091.81;;;16.05
53412;BMP280;39307;52.870;13.660;2023-09-19T05:15:05;100101.78;;;16.03
53412;BMP280;39307;52.870;13.660;2023-09-19T05:17:31;100106.47;;;16.01
53412;BMP280;39307;52.870;13.660;2023-09-19T05:19:58;100096.75;;;16.01
53412;BMP280;39307;52.870;13.660;2023-09-19T05:22:27;100110.41;;;15.98
53412;BMP280;39307;52.870;13.660;2023-09-19T05:24:53;100104.78;;;15.95
53412;BMP280;39307;52.870;13.660;2023-09-19T05:27:19;100108.91;;;15.91
53412;BMP280;39307;52.870;13.660;2023-09-19T05:29:46;100103.88;;;15.89
53412;BMP280;39307;52.870;13.660;2023-09-19T05:32:12;100100.06;;;15.86
53412;BMP280;39307;52.870;13.660;2023-09-19T05:34:38;100105.81;;;15.83
53412;BMP280;39307;52.870;13.660;2023-09-19T05:37:05;100124.06;;;15.84
53412;BMP280;39307;52.870;13.660;2023-09-19T05:39:31;100127.75;;;15.83
53412;BMP280;39307;52.870;13.660;2023-09-19T05:41:57;100125.13;;;15.83
53412;BMP280;39307;52.870;13.660;2023-09-19T05:44:23;100133.50;;;15.80
53412;BMP280;39307;52.870;13.660;2023-09-19T05:46:50;100136.13;;;15.80
53412;BMP280;39307;52.870;13.660;2023-09-19T05:49:16;100140.81;;;15.78
53412;BMP280;39307;52.870;13.660;2023-09-19T05:51:42;100143.47;;;15.78
53412;BMP280;39307;52.870;13.660;2023-09-19T05:54:08;100147.69;;;15.79
53412;BMP280;39307;52.870;13.660;2023-09-19T05:56:35;100158.25;;;15.79
53412;BMP280;39307;52.870;13.660;2023-09-19T05:59:01;100155.41;;;15.81
53412;BMP280;39307;52.870;13.660;2023-09-19T06:01:27;100164.69;;;15.83
53412;BMP280;39307;52.870;13.660;2023-09-19T06:03:53;100163.06;;;15.82
53412;BMP280;39307;52.870;13.660;2023-09-19T06:06:19;100176.84;;;15.84
53412;BMP280;39307;52.870;13.660;2023-09-19T06:08:45;100180.28;;;15.85
53412;BMP280;39307;52.870;13.660;2023-09-19T06:11:12;100183.84;;;15.90
53412;BMP280;39307;52.870;13.660;2023-09-19T06:13:38;100187.28;;;15.90
53412;BMP280;39307;52.870;13.660;2023-09-19T06:16:04;100189.72;;;15.92
53412;BMP280;39307;52.870;13.660;2023-09-19T06:18:31;100198.44;;;15.92
53412;BMP280;39307;52.870;13.660;2023-09-19T06:20:58;100196.34;;;15.94
53412;BMP280;39307;52.870;13.660;2023-09-19T06:23:24;100201.19;;;15.97
53412;BMP280;39307;52.870;13.660;2023-09-19T06:25:50;100203.59;;;15.99
53412;BMP280;39307;52.870;13.660;2023-09-19T06:28:16;100213.47;;;16.03
53412;BMP280;39307;52.870;13.660;2023-09-19T06:30:42;100212.78;;;16.08
53412;BMP280;39307;52.870;13.660;2023-09-19T06:33:09;100221.44;;;16.15
53412;BMP280;39307;52.870;13.660;2023-09-19T06:35:35;100217.53;;;16.17
53412;BMP280;39307;52.870;13.660;2023-09-19T06:38:05;100217.88;;;16.20
53412;BMP280;39307;52.870;13.660;2023-09-19T06:40:31;100218.78;;;16.26
53412;BMP280;39307;52.870;13.660;2023-09-19T06:42:57;100211.22;;;16.29
53412;BMP280;39307;52.870;13.660;2023-09-19T06:45:24;100225.09;;;16.36
53412;BMP280;39307;52.870;13.660;2023-09-19T06:47:51;100215.19;;;16.43
53412;BMP280;39307;52.870;13.660;2023-09-19T06:50:21;100217.97;;;16.48
53412;BMP280;39307;52.870;13.660;2023-09-19T06:52:48;100212.88;;;16.58
53412;BMP280;39307;52.870;13.660;2023-09-19T06:55:15;100213.56;;;16.65
53412;BMP280;39307;52.870;13.660;2023-09-19T06:57:42;100216.09;;;16.71
53412;BMP280;39307;52.870;13.660;2023-09-19T07:00:08;100210.75;;;16.82
53412;BMP280;39307;52.870;13.660;2023-09-19T07:02:35;100212.00;;;16.91
53412;BMP280;39307;52.870;13.660;2023-09-19T07:05:01;100212.19;;;17.01
53412;BMP280;39307;52.870;13.660;2023-09-19T07:07:28;100204.72;;;17.09
53412;BMP280;39307;52.870;13.660;2023-09-19T07:09:54;100198.31;;;17.22
53412;BMP280;39307;52.870;13.660;2023-09-19T07:12:20;100216.09;;;17.37
53412;BMP280;39307;52.870;13.660;2023-09-19T07:14:46;100229.09;;;17.55
53412;BMP280;39307;52.870;13.660;2023-09-19T07:17:12;100220.88;;;17.68
53412;BMP280;39307;52.870;13.660;2023-09-19T07:19:38;100229.19;;;17.76
53412;BMP280;39307;52.870;13.660;2023-09-19T07:22:05;100236.97;;;17.83
53412;BMP280;39307;52.870;13.660;2023-09-19T07:24:31;100234.50;;;17.92
53412;BMP280;39307;52.870;13.660;2023-09-19T07:26:57;100234.03;;;17.95
53412;BMP280;39307;52.870;13.660;2023-09-19T07:29:23;100233.72;;;17.92
53412;BMP280;39307;52.870;13.660;2023-09-19T07:31:49;100239.56;;;17.94
53412;BMP280;39307;52.870;13.660;2023-09-19T07:34:15;100241.19;;;17.95
53412;BMP280;39307;52.870;13.660;2023-09-19T07:36:42;100258.41;;;17.97
53412;BMP280;39307;52.870;13.660;2023-09-19T07:39:08;100259.59;;;18.01
53412;BMP280;39307;52.870;13.660;2023-09-19T07:41:34;100251.66;;;18.01
53412;BMP280;39307;52.870;13.660;2023-09-19T07:44:00;100267.28;;;18.03
53412;BMP280;39307;52.870;13.660;2023-09-19T07:46:27;100273.81;;;18.00
53412;BMP280;39307;52.870;13.660;2023-09-19T07:48:53;100261.41;;;18.01
53412;BMP280;39307;52.870;13.660;2023-09-19T07:51:19;100275.00;;;18.04
53412;BMP280;39307;52.870;13.660;2023-09-19T07:53:45;100267.06;;;18.04
53412;BMP280;39307;52.870;13.660;2023-09-19T07:56:11;100271.88;;;18.07
53412;BMP280;39307;52.870;13.660;2023-09-19T07:58:41;100277.97;;;18.08
53412;BMP280;39307;52.870;13.660;2023-09-19T08:01:08;100284.53;;;18.05
53412;BMP280;39307;52.870;13.660;2023-09-19T08:03:35;100290.63;;;18.06
53412;BMP280;39307;52.870;13.660;2023-09-19T08:06:01;100291.28;;;18.13
53412;BMP280;39307;52.870;13.660;2023-09-19T08:08:28;100278.34;;;18.32
53412;BMP280;39307;52.870;13.660;2023-09-19T08:10:58;100280.56;;;18.56
53412;BMP280;39307;52.870;13.660;2023-09-19T08:13:25;100271.75;;;18.72
53412;BMP280;39307;52.870;13.660;2023-09-19T08:15:51;100275.59;;;18.81
53412;BMP280;39307;52.870;13.660;2023-09-19T08:18:18;100280.97;;;18.86
53412;BMP280;39307;52.870;13.660;2023-09-19T08:20:51;100280.41;;;18.84
53412;BMP280;39307;52.870;13.660;2023-09-19T08:23:18;100280.91;;;18.81
53412;BMP280;39307;52.870;13.660;2023-09-19T08:25:44;100285.09;;;18.77
53412;BMP280;39307;52.870;13.660;2023-09-19T08:28:10;100289.34;;;18.78
53412;BMP280;39307;52.870;13.660;2023-09-19T08:30:37;100292.50;;;18.75
53412;BMP280;39307;52.870;13.660;2023-09-19T08:33:03;100293.78;;;18.73
53412;BMP280;39307;52.870;13.660;2023-09-19T08:35:29;100302.00;;;18.71
53412;BMP280;39307;52.870;13.660;2023-09-19T08:37:55;100303.50;;;18.67
53412;BMP280;39307;52.870;13.660;2023-09-19T08:40:22;100301.69;;;18.68
53412;BMP280;39307;52.870;13.660;2023-09-19T08:42:52;100313.78;;;18.64
53412;BMP280;39307;52.870;13.660;2023-09-19T08:45:18;100310.22;;;18.53
53412;BMP280;39307;52.870;13.660;2023-09-19T08:50:39;100289.41;;;18.46
53412;BMP280;39307;52.870;13.660;2023-09-19T08:53:13;100299.47;;;18.44
53412;BMP280;39307;52.870;13.660;2023-09-19T08:55:43;100301.06;;;18.45
53412;BMP280;39307;52.870;13.660;2023-09-19T08:58:14;100298.09;;;18.41
53412;BMP280;39307;52.870;13.660;2023-09-19T09:00:46;100306.84;;;18.42
53412;BMP280;39307;52.870;13.660;2023-09-19T09:03:15;100304.19;;;18.42
53412;BMP280;39307;52.870;13.660;2023-09-19T09:05:43;100310.06;;;18.44
53412;BMP280;39307;52.870;13.660;2023-09-19T09:08:10;100314.63;;;18.48
53412;BMP280;39307;52.870;13.660;2023-09-19T09:10:37;100320.81;;;18.53
53412;BMP280;39307;52.870;13.660;2023-09-19T09:13:04;100313.75;;;18.59
53412;BMP280;39307;52.870;13.660;2023-09-19T09:15:31;100330.50;;;18.64
53412;BMP280;39307;52.870;13.660;2023-09-19T09:18:03;100318.88;;;18.65
53412;BMP280;39307;52.870;13.660;2023-09-19T09:20:29;100324.00;;;18.72
53412;BMP280;39307;52.870;13.660;2023-09-19T09:22:56;100322.06;;;18.83
53412;BMP280;39307;52.870;13.660;2023-09-19T09:25:23;100318.97;;;18.91
53412;BMP280;39307;52.870;13.660;2023-09-19T09:28:09;100321.94;;;18.95
53412;BMP280;39307;52.870;13.660;2023-09-19T09:30:36;100319.28;;;18.95
53412;BMP280;39307;52.870;13.660;2023-09-19T09:33:10;100323.38;;;19.02
53412;BMP280;39307;52.870;13.660;2023-09-19T09:35:37;100324.38;;;18.96
53412;BMP280;39307;52.870;13.660;2023-09-19T09:38:04;100332.25;;;18.91
53412;BMP280;39307;52.870;13.660;2023-09-19T09:40:47;100338.97;;;18.82
53412;BMP280;39307;52.870;13.660;2023-09-19T09:43:31;100327.75;;;18.76
53412;BMP280;39307;52.870;13.660;2023-09-19T09:46:26;100332.25;;;18.75
53412;BMP280;39307;52.870;13.660;2023-09-19T09:49:01;100324.88;;;18.77
53412;BMP280;39307;52.870;13.660;2023-09-19T09:51:31;100328.72;;;18.86
53412;BMP280;39307;52.870;13.660;2023-09-19T09:54:17;100330.00;;;18.83
53412;BMP280;39307;52.870;13.660;2023-09-19T09:59:21;100326.22;;;18.96
53412;BMP280;39307;52.870;13.660;2023-09-19T10:01:47;100330.06;;;19.05
53412;BMP280;39307;52.870;13.660;2023-09-19T10:04:28;100338.72;;;19.00
53412;BMP280;39307;52.870;13.660;2023-09-19T10:06:54;100331.34;;;19.02
53412;BMP280;39307;52.870;13.660;2023-09-19T10:09:21;100327.59;;;19.40
53412;BMP280;39307;52.870;13.660;2023-09-19T10:12:00;100319.47;;;19.52
53412;BMP280;39307;52.870;13.660;2023-09-19T10:14:30;100329.22;;;19.46
53412;BMP280;39307;52.870;13.660;2023-09-19T10:16:59;100327.03;;;19.38
53412;BMP280;39307;52.870;13.660;2023-09-19T10:19:45;100328.81;;;19.33
53412;BMP280;39307;52.870;13.660;2023-09-19T10:22:14;100326.44;;;19.32
53412;BMP280;39307;52.870;13.660;2023-09-19T10:24:44;100324.00;;;19.30
53412;BMP280;39307;52.870;13.660;2023-09-19T10:27:11;100319.97;;;19.28
53412;BMP280;39307;52.870;13.660;2023-09-19T10:29:39;100320.78;;;19.28
53412;BMP280;39307;52.870;13.660;2023-09-19T10:32:07;100326.09;;;19.28
53412;BMP280;39307;52.870;13.660;2023-09-19T10:34:35;100325.28;;;19.28
53412;BMP280;39307;52.870;13.660;2023-09-19T10:37:02;100330.41;;;19.34
53412;BMP280;39307;52.870;13.660;2023-09-19T10:39:30;100326.91;;;19.50
53412;BMP280;39307;52.870;13.660;2023-09-19T10:42:02;100323.59;;;19.64
53412;BMP280;39307;52.870;13.660;2023-09-19T10:44:32;100316.56;;;19.74
53412;BMP280;39307;52.870;13.660;2023-09-19T10:46:59;100317.16;;;19.81
53412;BMP280;39307;52.870;13.660;2023-09-19T10:49:25;100323.06;;;19.88
53412;BMP280;39307;52.870;13.660;2023-09-19T10:51:57;100325.91;;;19.77
53412;BMP280;39307;52.870;13.660;2023-09-19T10:54:32;100326.53;;;19.67
53412;BMP280;39307;52.870;13.660;2023-09-19T10:57:00;100323.56;;;19.59
53412;BMP280;39307;52.870;13.660;2023-09-19T10:59:26;100321.59;;;19.50
53412;BMP280;39307;52.870;13.660;2023-09-19T11:01:55;100320.28;;;19.52
53412;BMP280;39307;52.870;13.660;2023-09-19T11:07:10;100311.44;;;19.94
53412;BMP280;39307;52.870;13.660;2023-09-19T11:09:50;100319.63;;;20.19
53412;BMP280;39307;52.870;13.660;2023-09-19T11:14:55;100326.47;;;20.46
53412;BMP280;39307;52.870;13.660;2023-09-19T11:30:34;100321.78;;;20.22
53412;BMP280;39307;52.870;13.660;2023-09-19T11:33:32;100321.19;;;20.15
53412;BMP280;39307;52.870;13.660;2023-09-19T11:36:09;100323.25;;;20.08
53412;BMP280;39307;52.870;13.660;2023-09-19T11:46:52;100331.97;;;20.34
53412;BMP280;39307;52.870;13.660;2023-09-19T11:49:24;100331.38;;;20.54
53412;BMP280;39307;52.870;13.660;2023-09-19T11:51:52;100317.25;;;20.53
53412;BMP280;39307;52.870;13.660;2023-09-19T11:54:18;100323.81;;;20.46
53412;BMP280;39307;52.870;13.660;2023-09-19T11:56:45;100328.72;;;20.54
53412;BMP280;39307;52.870;13.660;2023-09-19T11:59:13;100321.91;;;20.72
53412;BMP280;39307;52.870;13.660;2023-09-19T12:01:55;100323.78;;;20.72
53412;BMP280;39307;52.870;13.660;2023-09-19T12:04:43;100326.09;;;20.63
53412;BMP280;39307;52.870;13.660;2023-09-19T12:07:11;100332.38;;;20.52
53412;BMP280;39307;52.870;13.660;2023-09-19T12:09:39;100330.13;;;20.66
53412;BMP280;39307;52.870;13.660;2023-09-19T12:12:06;100337.69;;;20.88
53412;BMP280;39307;52.870;13.660;2023-09-19T12:14:32;100334.94;;;21.24
53412;BMP280;39307;52.870;13.660;2023-09-19T12:16:58;100328.84;;;21.24
53412;BMP280;39307;52.870;13.660;2023-09-19T12:19:25;100342.19;;;21.29
53412;BMP280;39307;52.870;13.660;2023-09-19T12:21:59;100332.94;;;21.41
53412;BMP280;39307;52.870;13.660;2023-09-19T12:24:26;100337.72;;;21.39
53412;BMP280;39307;52.870;13.660;2023-09-19T12:26:53;100339.75;;;21.27
53412;BMP280;39307;52.870;13.660;2023-09-19T12:29:20;100336.25;;;21.17
53412;BMP280;39307;52.870;13.660;2023-09-19T12:31:51;100346.31;;;21.10
53412;BMP280;39307;52.870;13.660;2023-09-19T12:34:22;100338.84;;;21.07
53412;BMP280;39307;52.870;13.660;2023-09-19T12:36:48;100343.09;;;20.98
53412;BMP280;39307;52.870;13.660;2023-09-19T12:39:24;100350.47;;;20.91
53412;BMP280;39307;52.870;13.660;2023-09-19T12:41:51;100339.56;;;20.88
53412;BMP280;39307;52.870;13.660;2023-09-19T12:44:18;100337.97;;;20.92
53412;BMP280;39307;52.870;13.660;2023-09-19T12:46:44;100345.75;;;20.98
53412;BMP280;39307;52.870;13.660;2023-09-19T12:49:18;100355.34;;;21.04
53412;BMP280;39307;52.870;13.660;2023-09-19T12:51:46;100348.19;;;21.05
53412;BMP280;39307;52.870;13.660;2023-09-19T12:54:12;100338.06;;;21.02
53412;BMP280;39307;52.870;13.660;2023-09-19T12:56:43;100339.88;;;20.96
53412;BMP280;39307;52.870;13.660;2023-09-19T12:59:11;100345.16;;;20.91
53412;BMP280;39307;52.870;13.660;2023-09-19T13:01:38;100341.38;;;20.83
53412;BMP280;39307;52.870;13.660;2023-09-19T13:04:17;100347.44;;;20.73
53412;BMP280;39307;52.870;13.660;2023-09-19T13:06:48;100348.97;;;20.64
53412;BMP280;39307;52.870;13.660;2023-09-19T13:09:16;100345.00;;;20.67
53412;BMP280;39307;52.870;13.660;2023-09-19T13:11:42;100357.22;;;20.63
53412;BMP280;39307;52.870;13.660;2023-09-19T13:14:23;100348.69;;;20.61
53412;BMP280;39307;52.870;13.660;2023-09-19T13:17:03;100357.69;;;20.55
53412;BMP280;39307;52.870;13.660;2023-09-19T13:19:45;100355.50;;;20.52
53412;BMP280;39307;52.870;13.660;2023-09-19T13:22:42;100353.63;;;20.48
53412;BMP280;39307;52.870;13.660;2023-09-19T13:25:13;100351.75;;;20.48
53412;BMP280;39307;52.870;13.660;2023-09-19T13:27:41;100333.66;;;20.45
53412;BMP280;39307;52.870;13.660;2023-09-19T13:30:08;100337.13;;;20.46
53412;BMP280;39307;52.870;13.660;2023-09-19T13:32:34;100343.75;;;20.43
53412;BMP280;39307;52.870;13.660;2023-09-19T13:35:01;100345.25;;;20.34
53412;BMP280;39307;52.870;13.660;2023-09-19T13:37:27;100353.78;;;20.36
53412;BMP280;39307;52.870;13.660;2023-09-19T13:39:53;100346.59;;;20.32
53412;BMP280;39307;52.870;13.660;2023-09-19T13:42:20;100340.44;;;20.26
53412;BMP280;39307;52.870;13.660;2023-09-19T13:44:46;100345.47;;;20.23
53412;BMP280;39307;52.870;13.660;2023-09-19T13:47:12;100348.13;;;20.23
53412;BMP280;39307;52.870;13.660;2023-09-19T13:49:38;100339.34;;;20.23
53412;BMP280;39307;52.870;13.660;2023-09-19T13:52:05;100352.63;;;20.23
53412;BMP280;39307;52.870;13.660;2023-09-19T13:54:31;100356.31;;;20.17
53412;BMP280;39307;52.870;13.660;2023-09-19T13:56:57;100352.28;;;20.14
53412;BMP280;39307;52.870;13.660;2023-09-19T13:59:24;100352.53;;;20.13
53412;BMP280;39307;52.870;13.660;2023-09-19T14:01:50;100346.13;;;20.09
53412;BMP280;39307;52.870;13.660;2023-09-19T14:04:16;100356.75;;;20.09
53412;BMP280;39307;52.870;13.660;2023-09-19T14:06:43;100347.69;;;20.05
53412;BMP280;39307;52.870;13.660;2023-09-19T14:09:09;100356.75;;;20.09
53412;BMP280;39307;52.870;13.660;2023-09-19T14:11:36;100355.66;;;20.05
53412;BMP280;39307;52.870;13.660;2023-09-19T14:14:02;100354.78;;;19.99
53412;BMP280;39307;52.870;13.660;2023-09-19T14:16:28;100351.88;;;20.01
53412;BMP280;39307;52.870;13.660;2023-09-19T14:18:54;100352.94;;;20.00
53412;BMP280;39307;52.870;13.660;2023-09-19T14:21:21;100345.22;;;19.98
53412;BMP280;39307;52.870;13.660;2023-09-19T14:23:47;100342.50;;;19.94
53412;BMP280;39307;52.870;13.660;2023-09-19T14:26:13;100347.53;;;19.90
53412;BMP280;39307;52.870;13.660;2023-09-19T14:28:39;100334.81;;;19.92
53412;BMP280;39307;52.870;13.660;2023-09-19T14:31:10;100342.00;;;19.96
53412;BMP280;39307;52.870;13.660;2023-09-19T14:33:37;100351.56;;;19.97
53412;BMP280;39307;52.870;13.660;2023-09-19T14:36:08;100349.19;;;19.96
53412;BMP280;39307;52.870;13.660;2023-09-19T14:38:38;100343.88;;;19.96